createdAt,value
2019-02-21T00:00:50.378Z,15.70
2019-02-21T00:03:24.152Z,14.73
2019-02-21T00:05:57.664Z,15.35
2019-02-21T00:08:30.679Z,15.85
2019-02-21T00:11:03.690Z,14.83
2019-02-21T00:13:37.134Z,14.70
2019-02-21T00:16:10.642Z,13.83
2019-02-21T00:18:43.215Z,14.60
2019-02-21T00:21:16.976Z,14.03
2019-02-21T00:23:49.993Z,14.07
2019-02-21T00:26:23.397Z,12.95
2019-02-21T00:28:56.636Z,13.80
2019-02-21T00:31:30.001Z,14.40
2019-02-21T00:34:03.436Z,15.03
2019-02-21T00:36:37.198Z,12.93
2019-02-21T00:39:12.428Z,14.18
2019-02-21T00:41:45.934Z,13.78
2019-02-21T00:44:18.921Z,14.83
2019-02-21T00:46:52.736Z,15.32
2019-02-21T00:49:26.190Z,15.60
2019-02-21T00:51:59.525Z,15.83
2019-02-21T00:54:33.130Z,16.10
2019-02-21T00:57:06.205Z,14.28
2019-02-21T00:59:39.094Z,15.75
2019-02-21T01:02:12.626Z,14.15
2019-02-21T01:04:45.796Z,14.30
2019-02-21T01:07:18.787Z,15.48
2019-02-21T01:09:52.696Z,13.93
2019-02-21T01:12:25.427Z,14.35
2019-02-21T01:14:59.175Z,14.85
2019-02-21T01:17:32.979Z,16.67
2019-02-21T01:20:06.866Z,14.30
2019-02-21T01:22:40.079Z,15.25
2019-02-21T01:25:13.158Z,15.50
2019-02-21T01:27:46.957Z,15.98
2019-02-21T01:30:21.426Z,15.40
2019-02-21T01:32:55.120Z,15.83
2019-02-21T01:35:28.139Z,15.78
2019-02-21T01:38:01.693Z,15.13
2019-02-21T01:40:35.448Z,15.78
2019-02-21T01:43:08.584Z,17.60
2019-02-21T01:45:42.477Z,16.25
2019-02-21T01:48:16.245Z,15.80
2019-02-21T01:50:49.299Z,15.18
2019-02-21T01:53:22.785Z,16.73
2019-02-21T01:55:55.360Z,17.07
2019-02-21T01:58:29.274Z,17.65
2019-02-21T02:01:08.638Z,15.23
2019-02-21T02:03:37.670Z,17.10
2019-02-21T02:06:11.112Z,17.37
2019-02-21T02:08:44.914Z,16.30
2019-02-21T02:11:17.992Z,18.00
2019-02-21T02:13:52.790Z,16.75
2019-02-21T02:16:26.235Z,16.20
2019-02-21T02:18:59.530Z,17.90
2019-02-21T02:21:32.235Z,17.92
2019-02-21T02:24:05.283Z,17.37
2019-02-21T02:26:38.781Z,18.57
2019-02-21T02:29:12.473Z,18.87
2019-02-21T02:31:45.455Z,18.27
2019-02-21T02:34:18.490Z,18.82
2019-02-21T02:36:51.570Z,19.10
2019-02-21T02:39:25.368Z,18.85
2019-02-21T02:41:58.961Z,18.85
2019-02-21T02:44:32.784Z,19.25
2019-02-21T02:47:05.354Z,19.73
2019-02-21T02:49:38.753Z,18.32
2019-02-21T02:52:12.175Z,19.65
2019-02-21T02:54:45.537Z,20.25
2019-02-21T02:57:18.862Z,18.75
2019-02-21T02:59:51.667Z,19.82
2019-02-21T03:02:24.874Z,19.20
2019-02-21T03:04:57.886Z,18.80
2019-02-21T03:07:30.425Z,18.80
2019-02-21T03:10:06.011Z,20.43
2019-02-21T03:12:39.637Z,20.80
2019-02-21T03:15:12.815Z,20.00
2019-02-21T03:17:46.223Z,19.35
2019-02-21T03:20:19.397Z,20.30
2019-02-21T03:22:51.655Z,19.60
2019-02-21T03:25:24.766Z,19.98
2019-02-21T03:27:58.409Z,18.75
2019-02-21T03:30:31.835Z,20.48
2019-02-21T03:33:05.160Z,20.20
2019-02-21T03:35:38.561Z,19.62
2019-02-21T03:38:12.099Z,20.70
2019-02-21T03:40:44.813Z,21.77
2019-02-21T03:43:17.735Z,20.27
2019-02-21T03:45:51.541Z,20.43
2019-02-21T03:48:25.346Z,19.92
2019-02-21T03:50:58.817Z,19.45
2019-02-21T03:53:32.886Z,21.35
2019-02-21T03:56:05.619Z,18.98
2019-02-21T03:58:38.939Z,20.15
2019-02-21T04:01:12.054Z,20.12
2019-02-21T04:03:44.723Z,19.00
2019-02-21T04:06:17.787Z,22.25
2019-02-21T04:08:51.187Z,20.25
2019-02-21T04:11:24.353Z,21.48
2019-02-21T04:13:58.096Z,21.60
2019-02-21T04:16:31.804Z,21.33
2019-02-21T04:19:05.511Z,23.32
2019-02-21T04:21:38.950Z,22.70
2019-02-21T04:24:12.803Z,22.67
2019-02-21T04:26:46.198Z,23.90
2019-02-21T04:29:19.183Z,22.35
2019-02-21T04:31:52.204Z,23.40
2019-02-21T04:34:25.180Z,22.50
2019-02-21T04:36:59.620Z,23.73
2019-02-21T04:39:32.775Z,22.95
2019-02-21T04:42:05.778Z,22.48
2019-02-21T04:44:38.841Z,23.15
2019-02-21T04:47:11.481Z,23.40
2019-02-21T04:49:44.836Z,24.60
2019-02-21T04:52:18.427Z,23.98
2019-02-21T04:54:51.103Z,24.50
2019-02-21T04:57:23.330Z,24.92
2019-02-21T04:59:55.944Z,25.97
2019-02-21T05:02:29.748Z,24.95
2019-02-21T05:05:03.932Z,27.02
2019-02-21T05:07:36.965Z,24.55
2019-02-21T05:10:10.278Z,25.08
2019-02-21T05:12:43.309Z,27.25
2019-02-21T05:15:16.264Z,25.02
2019-02-21T05:17:49.648Z,25.25
2019-02-21T05:20:23.010Z,25.70
2019-02-21T05:22:56.765Z,25.92
2019-02-21T05:25:30.327Z,27.10
2019-02-21T05:28:41.100Z,29.02
2019-02-21T05:31:31.373Z,27.42
2019-02-21T05:34:16.881Z,29.18
2019-02-21T05:37:09.992Z,29.65
2019-02-21T05:40:03.220Z,27.07
2019-02-21T05:42:55.352Z,26.60
2019-02-21T05:45:58.039Z,28.90
2019-02-21T05:48:49.759Z,28.60
2019-02-21T05:51:39.756Z,27.85
2019-02-21T05:54:35.598Z,29.02
2019-02-21T05:57:26.625Z,29.23
2019-02-21T06:00:17.262Z,29.30
2019-02-21T06:03:22.540Z,28.55
2019-02-21T06:06:08.118Z,31.57
2019-02-21T06:08:46.026Z,31.65
2019-02-21T06:11:29.246Z,28.77
2019-02-21T06:14:20.704Z,30.52
2019-02-21T06:17:25.102Z,30.50
2019-02-21T06:20:21.563Z,31.82
2019-02-21T06:23:14.465Z,30.92
2019-02-21T06:25:59.171Z,29.32
2019-02-21T06:28:44.232Z,31.35
2019-02-21T06:31:19.809Z,30.12
2019-02-21T06:33:52.432Z,32.73
2019-02-21T06:36:26.222Z,31.93
2019-02-21T06:38:59.855Z,31.23
2019-02-21T06:41:32.930Z,29.57
2019-02-21T06:44:05.251Z,32.55
2019-02-21T06:46:38.296Z,34.08
2019-02-21T06:49:12.411Z,36.17
2019-02-21T06:51:44.690Z,36.00
2019-02-21T06:54:18.107Z,33.70
2019-02-21T06:56:51.177Z,32.08
2019-02-21T06:59:24.815Z,34.00
2019-02-21T07:01:57.763Z,33.78
2019-02-21T07:04:33.285Z,32.05
2019-02-21T07:07:06.783Z,32.08
2019-02-21T07:09:39.888Z,34.27
2019-02-21T07:12:13.313Z,29.75
2019-02-21T07:14:46.779Z,28.52
2019-02-21T07:17:19.545Z,27.40
2019-02-21T07:19:56.121Z,27.40
2019-02-21T07:22:28.814Z,30.45
2019-02-21T07:25:07.853Z,27.75
2019-02-21T07:27:40.949Z,28.40
2019-02-21T07:30:20.196Z,28.60
2019-02-21T07:32:49.390Z,29.05
2019-02-21T07:35:22.687Z,29.25
2019-02-21T07:37:56.146Z,27.70
2019-02-21T07:40:29.376Z,28.85
2019-02-21T07:43:02.664Z,28.70
2019-02-21T07:45:36.581Z,29.85
2019-02-21T07:48:10.631Z,28.17
2019-02-21T07:50:43.688Z,28.85
2019-02-21T07:53:17.176Z,27.37
2019-02-21T07:55:49.869Z,27.70
2019-02-21T07:58:24.049Z,24.65
2019-02-21T08:00:57.473Z,24.18
2019-02-21T08:03:43.762Z,25.27
2019-02-21T08:06:06.748Z,24.57
2019-02-21T08:08:39.848Z,27.85
2019-02-21T08:11:13.370Z,25.00
2019-02-21T08:13:46.419Z,24.32
2019-02-21T08:16:19.569Z,24.35
2019-02-21T08:18:52.677Z,23.90
2019-02-21T08:21:26.030Z,25.55
2019-02-21T08:23:59.375Z,25.08
2019-02-21T08:26:32.636Z,25.77
2019-02-21T08:29:06.369Z,25.45
2019-02-21T08:31:40.942Z,24.90
2019-02-21T08:34:33.271Z,25.35
2019-02-21T08:37:08.704Z,26.52
2019-02-21T08:39:42.391Z,24.80
2019-02-21T08:42:15.945Z,24.80
2019-02-21T08:44:49.632Z,24.95
2019-02-21T08:47:22.772Z,23.65
2019-02-21T08:49:56.268Z,24.23
2019-02-21T08:52:30.242Z,23.92
2019-02-21T08:55:03.177Z,22.60
2019-02-21T08:57:36.362Z,24.20
2019-02-21T09:00:11.019Z,24.82
2019-02-21T09:02:44.609Z,22.80
2019-02-21T09:05:17.489Z,23.42
2019-02-21T09:07:50.489Z,23.62
2019-02-21T09:10:23.264Z,22.22
2019-02-21T09:12:56.679Z,23.35
2019-02-21T09:15:29.741Z,23.90
2019-02-21T09:18:03.519Z,22.60
2019-02-21T09:20:37.044Z,22.82
2019-02-21T09:23:10.462Z,21.73
2019-02-21T09:25:43.532Z,23.07
2019-02-21T09:28:16.537Z,22.58
2019-02-21T09:30:51.066Z,22.95
2019-02-21T09:33:23.784Z,22.58
2019-02-21T09:35:57.267Z,23.05
2019-02-21T09:38:30.999Z,22.67
2019-02-21T09:41:04.443Z,21.75
2019-02-21T09:43:37.806Z,21.17
2019-02-21T09:46:11.214Z,22.50
2019-02-21T09:48:45.335Z,25.15
2019-02-21T09:51:18.437Z,21.70
2019-02-21T09:53:51.217Z,22.48
2019-02-21T09:56:30.482Z,23.18
2019-02-21T09:59:00.161Z,23.20
2019-02-21T10:01:33.438Z,22.95
2019-02-21T10:04:07.584Z,23.20
2019-02-21T10:06:40.761Z,23.12
2019-02-21T10:09:14.155Z,24.87
2019-02-21T10:11:47.922Z,27.05
2019-02-21T10:14:21.621Z,26.48
2019-02-21T10:16:55.070Z,24.95
2019-02-21T10:19:30.128Z,25.12
2019-02-21T10:22:04.493Z,25.43
2019-02-21T10:24:37.447Z,25.45
2019-02-21T10:27:10.091Z,24.77
2019-02-21T10:29:43.161Z,24.80
2019-02-21T10:32:16.307Z,24.82
2019-02-21T10:34:49.578Z,26.48
2019-02-21T10:37:23.052Z,25.02
2019-02-21T10:39:55.713Z,26.20
2019-02-21T10:42:28.823Z,25.37
2019-02-21T10:45:03.541Z,25.97
2019-02-21T10:47:37.258Z,25.15
2019-02-21T10:50:14.133Z,27.37
2019-02-21T10:52:48.297Z,27.50
2019-02-21T10:55:22.013Z,26.10
2019-02-21T10:57:55.974Z,27.87
2019-02-21T11:00:29.389Z,26.20
2019-02-21T11:03:02.221Z,29.60
2019-02-21T11:05:35.396Z,26.52
2019-02-21T11:08:08.331Z,26.05
2019-02-21T11:10:42.465Z,27.00
2019-02-21T11:13:16.447Z,27.73
2019-02-21T11:15:49.766Z,26.68
2019-02-21T11:18:23.272Z,26.68
2019-02-21T11:20:59.256Z,26.75
2019-02-21T11:23:32.522Z,26.82
2019-02-21T11:26:06.917Z,27.48
2019-02-21T11:28:40.010Z,28.25
2019-02-21T11:31:13.319Z,26.87
2019-02-21T11:33:46.057Z,25.75
2019-02-21T11:36:19.198Z,26.35
2019-02-21T11:38:51.898Z,26.25
2019-02-21T11:41:24.943Z,27.82
2019-02-21T11:43:58.481Z,25.30
2019-02-21T11:46:31.336Z,27.30
2019-02-21T11:49:04.866Z,25.17
2019-02-21T11:51:38.430Z,26.57
2019-02-21T11:54:14.641Z,26.57
2019-02-21T11:56:47.186Z,25.95
2019-02-21T11:59:20.329Z,25.82
2019-02-21T12:01:53.663Z,25.20
2019-02-21T12:04:26.845Z,25.45
2019-02-21T12:07:00.238Z,24.77
2019-02-21T12:09:33.710Z,22.27
2019-02-21T12:12:06.784Z,23.60
2019-02-21T12:14:40.014Z,23.77
2019-02-21T12:17:13.520Z,23.47
2019-02-21T12:19:46.626Z,23.32
2019-02-21T12:22:20.020Z,25.40
2019-02-21T12:24:53.104Z,21.70
2019-02-21T12:27:26.312Z,23.30
2019-02-21T12:29:59.388Z,24.95
2019-02-21T12:32:32.734Z,24.67
2019-02-21T12:35:05.881Z,23.18
2019-02-21T12:37:38.869Z,21.60
2019-02-21T12:40:14.232Z,22.35
2019-02-21T12:42:47.725Z,22.80
2019-02-21T12:45:20.462Z,22.67
2019-02-21T12:47:54.365Z,26.17
2019-02-21T12:50:27.381Z,22.67
2019-02-21T12:53:00.484Z,23.60
2019-02-21T12:55:33.996Z,22.75
2019-02-21T12:58:08.034Z,22.85
2019-02-21T13:00:41.402Z,24.10
2019-02-21T13:03:14.515Z,20.17
2019-02-21T13:05:47.570Z,20.57
2019-02-21T13:08:21.066Z,22.05
2019-02-21T13:10:54.471Z,22.95
2019-02-21T13:13:28.255Z,22.98
2019-02-21T13:16:02.311Z,20.40
2019-02-21T13:18:34.697Z,20.40
2019-02-21T13:21:08.277Z,20.82
2019-02-21T13:23:42.894Z,19.20
2019-02-21T13:26:16.299Z,18.25
2019-02-21T13:28:50.038Z,19.17
2019-02-21T13:31:23.159Z,18.37
2019-02-21T13:33:56.699Z,16.57
2019-02-21T13:36:30.243Z,16.82
2019-02-21T13:39:05.845Z,15.15
2019-02-21T13:41:39.497Z,16.60
2019-02-21T13:44:13.449Z,16.37
2019-02-21T13:46:46.309Z,16.62
2019-02-21T13:49:19.821Z,18.20
2019-02-21T13:51:52.913Z,16.77
2019-02-21T13:54:25.992Z,16.25
2019-02-21T13:56:59.357Z,16.50
2019-02-21T13:59:34.857Z,17.65
2019-02-21T14:02:07.740Z,18.45
2019-02-21T14:04:41.127Z,18.32
2019-02-21T14:07:14.608Z,18.55
2019-02-21T14:09:48.236Z,17.73
2019-02-21T14:12:21.222Z,19.25
2019-02-21T14:14:53.979Z,21.30
2019-02-21T14:17:27.615Z,19.42
2019-02-21T14:20:00.793Z,19.87
2019-02-21T14:22:33.555Z,20.52
2019-02-21T14:25:08.028Z,21.20
2019-02-21T14:27:43.114Z,19.55
2019-02-21T14:30:17.083Z,20.90
2019-02-21T14:32:50.538Z,18.80
2019-02-21T14:35:24.021Z,19.05
2019-02-21T14:37:56.915Z,19.87
2019-02-21T14:40:30.666Z,20.57
2019-02-21T14:43:04.249Z,21.07
2019-02-21T14:45:37.442Z,19.25
2019-02-21T14:48:10.849Z,19.35
2019-02-21T14:50:43.832Z,20.75
2019-02-21T14:53:17.598Z,19.40
2019-02-21T14:55:51.182Z,20.72
2019-02-21T14:58:25.222Z,20.00
2019-02-21T15:00:58.636Z,20.08
2019-02-21T15:03:33.288Z,18.45
2019-02-21T15:06:06.043Z,21.48
2019-02-21T15:08:39.846Z,19.87
2019-02-21T15:11:13.458Z,19.87
2019-02-21T15:13:46.209Z,20.55
2019-02-21T15:16:19.484Z,19.90
2019-02-21T15:18:55.243Z,20.12
2019-02-21T15:21:28.023Z,19.80
2019-02-21T15:24:01.077Z,19.32
2019-02-21T15:26:34.149Z,21.42
2019-02-21T15:29:07.770Z,19.32
2019-02-21T15:31:40.557Z,19.02
2019-02-21T15:34:14.447Z,19.52
2019-02-21T15:36:48.076Z,18.95
2019-02-21T15:39:21.285Z,19.57
2019-02-21T15:41:55.151Z,17.20
2019-02-21T15:44:28.136Z,17.77
2019-02-21T15:47:02.133Z,17.90
2019-02-21T15:49:35.858Z,17.87
2019-02-21T15:52:09.356Z,17.42
2019-02-21T15:54:42.997Z,18.48
2019-02-21T15:57:16.433Z,18.62
2019-02-21T15:59:49.646Z,17.30
2019-02-21T16:02:22.756Z,17.42
2019-02-21T16:04:55.963Z,18.55
2019-02-21T16:07:29.620Z,17.67
2019-02-21T16:10:02.806Z,18.20
2019-02-21T16:12:36.362Z,17.40
2019-02-21T16:15:09.366Z,19.20
2019-02-21T16:17:43.295Z,17.12
2019-02-21T16:20:16.479Z,18.00
2019-02-21T16:22:49.467Z,17.32
2019-02-21T16:25:22.894Z,17.80
2019-02-21T16:27:56.493Z,15.38
2019-02-21T16:30:29.797Z,16.73
2019-02-21T16:33:03.005Z,16.23
2019-02-21T16:35:36.711Z,15.65
2019-02-21T16:38:09.268Z,16.17
2019-02-21T16:40:42.261Z,18.20
2019-02-21T16:43:15.458Z,15.30
2019-02-21T16:45:53.623Z,15.05
2019-02-21T16:48:25.222Z,14.63
2019-02-21T16:50:59.208Z,15.75
2019-02-21T16:53:32.741Z,15.05
2019-02-21T16:56:06.581Z,14.05
2019-02-21T16:58:42.727Z,14.65
2019-02-21T17:01:14.782Z,16.05
2019-02-21T17:03:48.360Z,15.58
2019-02-21T17:06:21.343Z,14.13
2019-02-21T17:08:54.954Z,15.00
2019-02-21T17:11:28.042Z,14.15
2019-02-21T17:14:01.923Z,15.83
2019-02-21T17:16:35.025Z,13.48
2019-02-21T17:19:09.061Z,15.13
2019-02-21T17:21:43.038Z,13.60
2019-02-21T17:24:17.424Z,15.08
2019-02-21T17:26:50.773Z,14.35
2019-02-21T17:29:24.016Z,15.45
2019-02-21T17:31:57.421Z,15.15
2019-02-21T17:34:30.566Z,14.55
2019-02-21T17:37:03.649Z,13.25
2019-02-21T17:39:36.876Z,14.47
2019-02-21T17:42:10.324Z,14.05
2019-02-21T17:44:43.603Z,13.22
2019-02-21T17:47:17.247Z,14.55
2019-02-21T17:49:51.060Z,14.58
2019-02-21T17:52:24.363Z,13.80
2019-02-21T17:54:57.530Z,15.23
2019-02-21T17:57:31.030Z,16.10
2019-02-21T18:00:06.125Z,17.02
2019-02-21T18:02:39.577Z,18.45
2019-02-21T18:05:12.989Z,17.27
2019-02-21T18:07:45.399Z,19.30
2019-02-21T18:10:18.550Z,17.60
2019-02-21T18:12:51.628Z,21.25
2019-02-21T18:15:24.698Z,22.27
2019-02-21T18:17:58.626Z,23.50
2019-02-21T18:20:31.209Z,28.50
2019-02-21T18:23:05.158Z,26.17
2019-02-21T18:25:42.057Z,25.55
2019-02-21T18:28:15.585Z,25.85
2019-02-21T18:30:48.730Z,27.20
2019-02-21T18:33:21.896Z,27.73
2019-02-21T18:35:55.901Z,27.87
2019-02-21T18:38:29.358Z,28.55
2019-02-21T18:41:02.422Z,30.60
2019-02-21T18:43:35.877Z,29.67
2019-02-21T18:46:08.963Z,29.37
2019-02-21T18:48:43.083Z,30.15
2019-02-21T18:51:18.751Z,27.50
2019-02-21T18:53:52.025Z,29.63
2019-02-21T18:56:25.443Z,28.67
2019-02-21T18:58:58.723Z,29.10
2019-02-21T19:01:32.202Z,27.45
2019-02-21T19:04:05.308Z,28.25
2019-02-21T19:06:39.093Z,27.42
2019-02-21T19:09:13.267Z,27.25
2019-02-21T19:11:46.479Z,26.10
2019-02-21T19:14:19.630Z,26.87
2019-02-21T19:16:53.572Z,27.45
2019-02-21T19:19:27.327Z,26.75
2019-02-21T19:22:00.835Z,27.90
2019-02-21T19:24:36.983Z,26.50
2019-02-21T19:27:10.237Z,27.17
2019-02-21T19:29:43.228Z,26.87
2019-02-21T19:32:17.259Z,28.27
2019-02-21T19:34:51.043Z,28.10
2019-02-21T19:37:24.573Z,28.57
2019-02-21T19:39:58.498Z,32.50
2019-02-21T19:42:32.192Z,31.00
2019-02-21T19:45:05.943Z,32.42
2019-02-21T19:47:39.528Z,33.28
2019-02-21T19:50:13.689Z,36.73
2019-02-21T19:52:47.343Z,38.88
2019-02-21T19:55:21.026Z,39.55
2019-02-21T19:57:54.533Z,40.70
2019-02-21T20:00:30.586Z,40.95
2019-02-21T20:03:04.439Z,40.80
2019-02-21T20:05:37.695Z,42.88
2019-02-21T20:08:21.107Z,41.15
2019-02-21T20:10:47.552Z,45.50
2019-02-21T20:13:21.751Z,44.23
2019-02-21T20:15:55.733Z,45.90
2019-02-21T20:18:28.868Z,57.88
2019-02-21T20:21:01.862Z,49.58
2019-02-21T20:23:35.985Z,51.50
2019-02-21T20:26:17.913Z,50.25
2019-02-21T20:28:44.804Z,50.43
2019-02-21T20:31:18.311Z,52.40
2019-02-21T20:33:51.582Z,51.50
2019-02-21T20:36:25.215Z,54.83
2019-02-21T20:39:01.173Z,57.65
2019-02-21T20:41:36.457Z,56.70
2019-02-21T20:44:10.409Z,57.05
2019-02-21T20:46:43.619Z,57.20
2019-02-21T20:49:16.887Z,55.12
2019-02-21T20:51:49.904Z,54.65
2019-02-21T20:54:23.164Z,58.65
2019-02-21T20:56:57.095Z,60.43
2019-02-21T20:59:30.295Z,60.52
2019-02-21T21:02:03.610Z,62.27
2019-02-21T21:04:36.572Z,62.45
2019-02-21T21:07:10.675Z,63.28
2019-02-21T21:09:44.371Z,63.73
2019-02-21T21:12:17.875Z,69.58
2019-02-21T21:14:50.676Z,67.62
2019-02-21T21:17:23.061Z,71.37
2019-02-21T21:19:57.153Z,68.67
2019-02-21T21:22:30.336Z,69.35
2019-02-21T21:25:03.303Z,73.28
2019-02-21T21:27:38.571Z,71.50
2019-02-21T21:30:12.728Z,72.47
2019-02-21T21:32:47.653Z,70.37
2019-02-21T21:35:21.073Z,71.62
2019-02-21T21:37:55.068Z,74.25
2019-02-21T21:40:28.713Z,75.00
2019-02-21T21:43:02.230Z,70.47
2019-02-21T21:45:36.020Z,73.60
2019-02-21T21:48:09.248Z,70.62
2019-02-21T21:50:43.821Z,69.03
2019-02-21T21:53:17.206Z,65.55
2019-02-21T21:55:50.628Z,66.33
2019-02-21T21:58:23.250Z,60.73
2019-02-21T22:00:56.711Z,62.33
2019-02-21T22:03:29.721Z,59.48
2019-02-21T22:06:03.199Z,55.08
2019-02-21T22:08:35.906Z,52.43
2019-02-21T22:11:09.656Z,50.65
2019-02-21T22:13:42.890Z,50.83
2019-02-21T22:16:16.405Z,51.35
2019-02-21T22:18:49.682Z,51.23
2019-02-21T22:21:23.422Z,50.43
2019-02-21T22:23:57.087Z,48.30
2019-02-21T22:26:30.620Z,47.90
2019-02-21T22:29:04.013Z,51.77
2019-02-21T22:31:37.153Z,47.93
2019-02-21T22:34:10.576Z,47.78
2019-02-21T22:36:44.487Z,45.52
2019-02-21T22:39:17.857Z,42.70
2019-02-21T22:41:50.960Z,45.78
2019-02-21T22:44:23.983Z,44.13
2019-02-21T22:46:57.413Z,46.05
2019-02-21T22:49:30.426Z,44.83
2019-02-21T22:52:04.435Z,44.90
2019-02-21T22:54:38.062Z,41.25
2019-02-21T22:57:11.818Z,44.60
2019-02-21T22:59:44.874Z,39.67
2019-02-21T23:02:19.335Z,38.17
2019-02-21T23:05:18.640Z,35.40
2019-02-21T23:08:23.413Z,36.65
2019-02-21T23:10:56.965Z,33.33
2019-02-21T23:13:29.889Z,32.35
2019-02-21T23:16:03.301Z,33.73
2019-02-21T23:18:37.211Z,32.35
2019-02-21T23:21:10.594Z,32.23
2019-02-21T23:23:44.209Z,33.38
2019-02-21T23:26:17.673Z,31.50
2019-02-21T23:28:51.404Z,34.75
2019-02-21T23:31:24.995Z,32.50
2019-02-21T23:33:59.076Z,35.60
2019-02-21T23:36:32.299Z,35.45
2019-02-21T23:39:05.296Z,34.30
2019-02-21T23:41:39.418Z,36.65
2019-02-21T23:44:12.404Z,34.80
2019-02-21T23:46:45.498Z,35.28
2019-02-21T23:49:19.193Z,37.20
2019-02-21T23:51:52.477Z,36.13
2019-02-21T23:54:25.392Z,33.60
2019-02-21T23:56:58.714Z,34.08
2019-02-21T23:59:31.327Z,34.38
